Time;durP1;ratioP1;P1;durP2;ratioP2;P2;SDS_P1;SDS_P2;PMS_P1;PMS_P2;Temp;Humidity;BMP_temperature;BMP_pressure;BME280_temperature;BME280_humidity;BME280_pressure;Samples;Min_cycle;Max_cycle;Signal;HPM_P1;HPM_P2
2024/02/23 00:01:06;;;;;;;;;;;22.80;36.10;;;;;;5073579;28;20421;-59
2024/02/23 00:03:37;;;;;;;;;;;22.80;36.00;;;;;;5073664;28;20341;-60
2024/02/23 00:06:04;;;;;;;;;;;22.80;36.00;;;;;;5073570;28;19924;-60
2024/02/23 00:08:31;;;;;;;;;;;22.80;35.90;;;;;;5073494;28;19931;-60
2024/02/23 00:10:58;;;;;;;;;;;22.90;35.90;;;;;;5073241;28;19929;-59
2024/02/23 00:13:25;;;;;;;;;;;22.80;35.80;;;;;;5073250;28;20022;-59
2024/02/23 00:15:52;;;;;;;;;;;22.80;35.80;;;;;;5073527;28;19932;-59
2024/02/23 00:18:20;;;;;;;;;;;22.80;35.80;;;;;;5073122;28;19925;-59
2024/02/23 00:20:47;;;;;;;;;;;22.80;35.80;;;;;;5073532;28;19986;-59
2024/02/23 00:23:14;;;;;;;;;;;22.80;35.80;;;;;;5072993;28;19933;-60
2024/02/23 00:25:41;;;;;;;;;;;22.80;35.80;;;;;;5073504;28;19939;-59
2024/02/23 00:28:08;;;;;;;;;;;22.80;35.80;;;;;;5072896;28;19924;-59
2024/02/23 00:30:35;;;;;;;;;;;22.90;35.90;;;;;;5073129;28;19932;-60
2024/02/23 00:33:03;;;;;;;;;;;22.80;35.80;;;;;;5072114;28;19929;-60
2024/02/23 00:35:30;;;;;;;;;;;22.80;35.80;;;;;;5073224;28;19925;-60
2024/02/23 00:37:57;;;;;;;;;;;22.80;35.80;;;;;;5073452;28;19994;-60
2024/02/23 00:40:24;;;;;;;;;;;22.80;35.90;;;;;;5073084;28;20027;-59
2024/02/23 00:42:51;;;;;;;;;;;22.80;35.80;;;;;;5072691;28;19970;-60
2024/02/23 00:45:19;;;;;;;;;;;22.80;35.90;;;;;;5073338;28;19947;-60
2024/02/23 00:47:48;;;;;;;;;;;22.80;35.90;;;;;;5072691;28;20398;-59
2024/02/23 00:50:15;;;;;;;;;;;22.70;35.80;;;;;;5072899;28;20376;-59
2024/02/23 00:52:43;;;;;;;;;;;22.70;35.90;;;;;;5072868;28;20317;-59
2024/02/23 00:55:10;;;;;;;;;;;22.80;35.90;;;;;;5072853;28;19935;-59
2024/02/23 00:57:38;;;;;;;;;;;22.70;35.80;;;;;;5073233;28;19967;-59
2024/02/23 01:00:05;;;;;;;;;;;22.70;35.90;;;;;;5072766;28;20027;-59
2024/02/23 01:02:33;;;;;;;;;;;22.70;35.90;;;;;;5072795;28;19974;-59
2024/02/23 01:05:00;;;;;;;;;;;22.70;35.90;;;;;;5072764;28;19983;-59
2024/02/23 01:07:27;;;;;;;;;;;22.70;35.90;;;;;;5072843;28;20011;-59
2024/02/23 01:09:54;;;;;;;;;;;22.70;35.90;;;;;;5072932;28;19935;-59
2024/02/23 01:12:22;;;;;;;;;;;22.80;35.90;;;;;;5072716;28;20382;-60
2024/02/23 01:14:49;;;;;;;;;;;22.80;35.90;;;;;;5072722;28;19931;-59
2024/02/23 01:17:15;;;;;;;;;;;22.80;35.80;;;;;;5073060;28;19930;-61
2024/02/23 01:19:43;;;;;;;;;;;22.80;35.80;;;;;;5072798;28;20389;-59
2024/02/23 01:22:10;;;;;;;;;;;22.80;35.70;;;;;;5072623;28;19935;-59
2024/02/23 01:24:37;;;;;;;;;;;22.80;35.80;;;;;;5072653;28;19924;-59
2024/02/23 01:27:04;;;;;;;;;;;22.80;35.70;;;;;;5072879;28;19928;-59
2024/02/23 01:29:31;;;;;;;;;;;22.80;35.70;;;;;;5072799;28;20285;-59
2024/02/23 01:31:58;;;;;;;;;;;22.80;35.70;;;;;;5072830;28;20295;-59
2024/02/23 01:34:25;;;;;;;;;;;22.80;35.70;;;;;;5072575;28;19924;-59
2024/02/23 01:36:52;;;;;;;;;;;22.80;35.70;;;;;;5072122;28;20428;-59
2024/02/23 01:39:19;;;;;;;;;;;22.80;35.70;;;;;;5072571;28;19947;-60
2024/02/23 01:41:46;;;;;;;;;;;22.80;35.80;;;;;;5072492;28;19968;-59
2024/02/23 01:44:15;;;;;;;;;;;22.80;35.80;;;;;;5076339;28;19924;-59
2024/02/23 01:46:42;;;;;;;;;;;22.80;35.80;;;;;;5075038;28;19963;-59
2024/02/23 01:49:09;;;;;;;;;;;22.80;35.80;;;;;;5076131;28;19974;-60
2024/02/23 01:51:36;;;;;;;;;;;22.70;35.80;;;;;;5076147;28;19924;-59
2024/02/23 01:54:03;;;;;;;;;;;22.70;35.80;;;;;;5076113;28;19975;-60
2024/02/23 01:56:32;;;;;;;;;;;22.70;35.80;;;;;;5076006;28;19967;-59
2024/02/23 01:59:00;;;;;;;;;;;22.70;35.80;;;;;;5075749;28;19928;-59
2024/02/23 02:01:27;;;;;;;;;;;22.70;35.80;;;;;;5075568;28;20370;-60
2024/02/23 02:03:56;;;;;;;;;;;22.70;35.80;;;;;;5076129;28;19931;-59
2024/02/23 02:06:24;;;;;;;;;;;22.70;35.80;;;;;;5075765;28;20014;-59
2024/02/23 02:08:51;;;;;;;;;;;22.70;35.80;;;;;;5075573;28;20294;-59
2024/02/23 02:11:18;;;;;;;;;;;22.70;35.80;;;;;;5076009;28;19924;-59
2024/02/23 02:13:45;;;;;;;;;;;22.70;35.80;;;;;;5075201;28;20382;-60
2024/02/23 02:16:12;;;;;;;;;;;22.70;35.80;;;;;;5075690;28;19939;-60
2024/02/23 02:18:39;;;;;;;;;;;22.70;35.80;;;;;;5075732;28;19925;-60
2024/02/23 02:21:06;;;;;;;;;;;22.70;35.80;;;;;;5075620;28;19948;-60
2024/02/23 02:23:33;;;;;;;;;;;22.70;35.80;;;;;;5074352;28;19928;-59
2024/02/23 02:26:00;;;;;;;;;;;22.70;35.70;;;;;;5075651;28;19929;-59
2024/02/23 02:28:27;;;;;;;;;;;22.70;35.70;;;;;;5074871;28;20042;-61
2024/02/23 02:30:54;;;;;;;;;;;22.70;35.70;;;;;;5075347;28;19924;-59
2024/02/23 02:33:21;;;;;;;;;;;22.70;35.70;;;;;;5075001;28;20015;-59
2024/02/23 02:35:49;;;;;;;;;;;22.70;35.70;;;;;;5074229;28;19924;-59
2024/02/23 02:38:17;;;;;;;;;;;22.70;35.70;;;;;;5075361;28;19931;-59
2024/02/23 02:40:44;;;;;;;;;;;22.70;35.70;;;;;;5073923;28;19925;-59
2024/02/23 02:43:11;;;;;;;;;;;22.70;35.70;;;;;;5075429;28;19932;-60
2024/02/23 02:45:38;;;;;;;;;;;22.70;35.70;;;;;;5075204;28;20023;-59
2024/02/23 02:48:05;;;;;;;;;;;22.70;35.70;;;;;;5075162;28;20027;-59
2024/02/23 02:50:32;;;;;;;;;;;22.70;35.70;;;;;;5075692;28;19924;-60
2024/02/23 02:53:00;;;;;;;;;;;22.70;35.80;;;;;;5074570;28;19929;-59
2024/02/23 02:55:26;;;;;;;;;;;22.70;35.70;;;;;;5074042;28;19931;-60
2024/02/23 02:57:53;;;;;;;;;;;22.70;35.70;;;;;;5074994;28;20003;-59
2024/02/23 03:00:20;;;;;;;;;;;22.70;35.70;;;;;;5073885;28;19928;-59
2024/02/23 03:02:47;;;;;;;;;;;22.70;35.80;;;;;;5074536;28;20300;-59
2024/02/23 03:05:15;;;;;;;;;;;22.70;35.80;;;;;;5074525;28;20450;-59
2024/02/23 03:07:41;;;;;;;;;;;22.70;35.80;;;;;;5074883;28;19925;-59
2024/02/23 03:10:08;;;;;;;;;;;22.60;35.70;;;;;;5074410;28;20552;-59
2024/02/23 03:12:35;;;;;;;;;;;22.60;35.70;;;;;;5074567;28;19924;-60
2024/02/23 03:15:02;;;;;;;;;;;22.70;35.80;;;;;;5074479;28;19928;-59
2024/02/23 03:17:29;;;;;;;;;;;22.70;35.80;;;;;;5074352;28;19925;-59
2024/02/23 03:19:57;;;;;;;;;;;22.60;35.70;;;;;;5074092;28;19928;-59
2024/02/23 03:22:24;;;;;;;;;;;22.60;35.80;;;;;;5074305;28;19932;-59
2024/02/23 03:24:51;;;;;;;;;;;22.60;35.80;;;;;;5074000;28;19936;-59
2024/02/23 03:27:19;;;;;;;;;;;22.70;36.40;;;;;;5074291;28;20015;-59
2024/02/23 03:29:46;;;;;;;;;;;22.70;35.80;;;;;;5065838;28;19924;-59
2024/02/23 03:32:13;;;;;;;;;;;22.70;35.80;;;;;;5054209;28;19959;-59
2024/02/23 03:34:40;;;;;;;;;;;22.70;35.70;;;;;;5053484;28;20043;-60
2024/02/23 03:37:07;;;;;;;;;;;22.70;35.70;;;;;;5054055;28;20016;-60
2024/02/23 03:39:34;;;;;;;;;;;22.70;35.70;;;;;;5053795;28;19990;-59
2024/02/23 03:42:01;;;;;;;;;;;22.70;35.70;;;;;;5053948;28;19925;-59
2024/02/23 03:44:28;;;;;;;;;;;22.70;35.70;;;;;;5053896;28;19968;-59
2024/02/23 03:46:55;;;;;;;;;;;22.70;35.70;;;;;;5055433;28;19932;-59
2024/02/23 03:49:22;;;;;;;;;;;22.70;35.70;;;;;;5074094;28;20384;-59
2024/02/23 03:51:49;;;;;;;;;;;22.70;35.70;;;;;;5073559;28;19977;-60
2024/02/23 03:54:16;;;;;;;;;;;22.60;35.70;;;;;;5072712;28;19971;-59
2024/02/23 03:56:43;;;;;;;;;;;22.60;35.70;;;;;;5072439;28;19924;-59
2024/02/23 03:59:10;;;;;;;;;;;22.60;35.70;;;;;;5073667;28;19935;-59
2024/02/23 04:01:37;;;;;;;;;;;22.60;35.70;;;;;;5073295;28;19967;-59
2024/02/23 04:04:05;;;;;;;;;;;22.60;35.70;;;;;;5072358;28;20390;-59
2024/02/23 04:06:33;;;;;;;;;;;22.60;35.70;;;;;;5073383;28;19925;-59
2024/02/23 04:09:00;;;;;;;;;;;22.60;35.70;;;;;;5073279;28;19935;-60
2024/02/23 04:11:27;;;;;;;;;;;22.60;35.80;;;;;;5073680;28;20336;-59
2024/02/23 04:13:54;;;;;;;;;;;22.60;35.80;;;;;;5073437;28;19928;-59
2024/02/23 04:16:24;;;;;;;;;;;22.60;35.80;;;;;;5073861;28;20003;-59
2024/02/23 04:18:52;;;;;;;;;;;22.60;35.80;;;;;;5071872;28;19924;-59
2024/02/23 04:21:19;;;;;;;;;;;22.60;35.80;;;;;;5073301;28;19925;-59
2024/02/23 04:23:46;;;;;;;;;;;22.60;35.80;;;;;;5073154;28;20381;-60
2024/02/23 04:26:13;;;;;;;;;;;22.60;35.80;;;;;;5073056;28;19970;-59
2024/02/23 04:28:41;;;;;;;;;;;22.60;35.80;;;;;;5073115;28;20439;-59
2024/02/23 04:31:08;;;;;;;;;;;22.60;35.80;;;;;;5073483;28;19928;-59
2024/02/23 04:33:36;;;;;;;;;;;22.60;35.80;;;;;;5072861;28;20008;-59
2024/02/23 04:36:03;;;;;;;;;;;22.60;35.80;;;;;;5073115;28;20019;-59
2024/02/23 04:38:30;;;;;;;;;;;22.60;35.80;;;;;;5073458;28;20297;-59
2024/02/23 04:40:58;;;;;;;;;;;22.60;35.70;;;;;;5072976;28;19935;-59
2024/02/23 04:43:25;;;;;;;;;;;22.60;35.60;;;;;;5073194;28;19924;-59
2024/02/23 04:45:52;;;;;;;;;;;22.60;35.60;;;;;;5073296;28;19925;-59
2024/02/23 04:48:18;;;;;;;;;;;22.60;35.50;;;;;;5071817;28;19976;-59
2024/02/23 04:50:45;;;;;;;;;;;22.60;35.40;;;;;;5072820;28;20099;-59
2024/02/23 04:53:12;;;;;;;;;;;22.70;36.00;;;;;;5073008;28;19972;-59
2024/02/23 04:55:40;;;;;;;;;;;22.70;35.40;;;;;;5072394;28;19970;-59
2024/02/23 04:58:07;;;;;;;;;;;22.70;35.30;;;;;;5072669;28;19925;-59
2024/02/23 05:00:34;;;;;;;;;;;22.70;35.30;;;;;;5072739;28;20396;-59
2024/02/23 05:03:04;;;;;;;;;;;22.70;35.30;;;;;;5072521;28;19929;-59
2024/02/23 05:05:32;;;;;;;;;;;22.70;35.30;;;;;;5072918;28;19925;-59
2024/02/23 05:07:59;;;;;;;;;;;22.70;35.30;;;;;;5073205;28;20014;-59
2024/02/23 05:10:26;;;;;;;;;;;22.70;35.30;;;;;;5072892;28;19963;-59
2024/02/23 05:12:54;;;;;;;;;;;22.70;35.30;;;;;;5071889;28;19925;-60
2024/02/23 05:15:21;;;;;;;;;;;22.70;35.30;;;;;;5071990;28;19994;-59
2024/02/23 05:17:48;;;;;;;;;;;22.70;35.20;;;;;;5068877;28;19925;-59
2024/02/23 05:20:15;;;;;;;;;;;22.70;35.20;;;;;;5062391;28;19933;-60
2024/02/23 05:22:42;;;;;;;;;;;22.70;35.30;;;;;;5056483;28;19925;-59
2024/02/23 05:25:09;;;;;;;;;;;22.70;35.20;;;;;;5075633;28;19932;-59
2024/02/23 05:27:36;;;;;;;;;;;22.70;35.30;;;;;;5076030;28;19978;-59
2024/02/23 05:30:03;;;;;;;;;;;22.70;35.20;;;;;;5076830;28;19924;-59
2024/02/23 05:32:30;;;;;;;;;;;22.70;35.30;;;;;;5076206;28;19970;-59
2024/02/23 05:34:57;;;;;;;;;;;22.70;35.30;;;;;;5075900;28;20386;-61
2024/02/23 05:37:24;;;;;;;;;;;22.70;35.30;;;;;;5075458;28;19925;-59
2024/02/23 05:39:51;;;;;;;;;;;22.70;35.40;;;;;;5076299;28;19930;-59
2024/02/23 05:42:18;;;;;;;;;;;22.70;35.40;;;;;;5075994;28;19928;-59
2024/02/23 05:44:45;;;;;;;;;;;22.70;35.40;;;;;;5075791;28;19928;-59
2024/02/23 05:47:13;;;;;;;;;;;22.70;35.40;;;;;;5076206;28;20332;-59
2024/02/23 05:49:41;;;;;;;;;;;22.70;35.40;;;;;;5071979;28;19979;-59
2024/02/23 05:52:07;;;;;;;;;;;22.70;35.40;;;;;;5060754;28;20020;-59
2024/02/23 05:54:35;;;;;;;;;;;22.70;35.40;;;;;;5056250;28;19951;-59
2024/02/23 05:57:02;;;;;;;;;;;22.70;35.40;;;;;;5062199;28;19932;-60
2024/02/23 05:59:29;;;;;;;;;;;22.80;35.30;;;;;;5075811;28;20369;-59
2024/02/23 06:01:56;;;;;;;;;;;22.80;35.30;;;;;;5075658;28;19925;-59
2024/02/23 06:04:24;;;;;;;;;;;22.80;35.20;;;;;;5072750;28;19970;-59
2024/02/23 06:06:51;;;;;;;;;;;22.80;35.20;;;;;;5074313;28;19924;-59
2024/02/23 06:09:18;;;;;;;;;;;22.80;35.20;;;;;;5075078;28;20035;-59
2024/02/23 06:11:46;;;;;;;;;;;22.80;35.20;;;;;;5075282;28;20328;-60
2024/02/23 06:14:13;;;;;;;;;;;22.80;35.10;;;;;;5072355;28;19925;-59
2024/02/23 06:16:40;;;;;;;;;;;22.80;35.10;;;;;;5074034;28;20463;-59
2024/02/23 06:19:08;;;;;;;;;;;22.90;35.30;;;;;;5073276;28;19932;-59
2024/02/23 06:21:35;;;;;;;;;;;22.90;35.30;;;;;;5073025;28;19981;-58
2024/02/23 06:24:02;;;;;;;;;;;22.90;35.40;;;;;;5072710;28;19940;-60
2024/02/23 06:26:29;;;;;;;;;;;22.90;35.40;;;;;;5069489;28;19932;-61
2024/02/23 06:28:56;;;;;;;;;;;23.00;35.40;;;;;;5064869;28;20417;-60
2024/02/23 06:31:23;;;;;;;;;;;23.00;35.40;;;;;;5064276;28;19924;-61
2024/02/23 06:33:51;;;;;;;;;;;23.00;35.40;;;;;;5065336;28;19946;-60
2024/02/23 06:36:19;;;;;;;;;;;23.10;35.60;;;;;;5069023;28;19947;-59
2024/02/23 06:38:46;;;;;;;;;;;23.10;35.90;;;;;;5070082;28;20378;-59
2024/02/23 06:41:13;;;;;;;;;;;23.10;36.10;;;;;;5069661;28;19932;-60
2024/02/23 06:43:40;;;;;;;;;;;23.10;36.30;;;;;;5067137;28;19939;-60
2024/02/23 06:46:08;;;;;;;;;;;23.10;36.20;;;;;;5068510;28;19936;-60
2024/02/23 06:48:35;;;;;;;;;;;23.20;36.20;;;;;;5066367;28;19935;-57
2024/02/23 06:51:03;;;;;;;;;;;23.30;36.20;;;;;;5062878;28;19932;-58
2024/02/23 06:53:31;;;;;;;;;;;23.30;36.20;;;;;;5067943;28;20028;-58
2024/02/23 06:55:58;;;;;;;;;;;23.30;36.10;;;;;;5063861;28;19960;-60
2024/02/23 06:58:26;;;;;;;;;;;23.30;36.00;;;;;;5061205;28;19932;-59
2024/02/23 07:00:53;;;;;;;;;;;23.40;36.00;;;;;;5062322;28;20240;-59
2024/02/23 07:03:20;;;;;;;;;;;23.40;36.00;;;;;;5067839;28;19936;-59
2024/02/23 07:05:49;;;;;;;;;;;23.40;36.30;;;;;;5063692;28;20432;-58
2024/02/23 07:08:17;;;;;;;;;;;23.40;36.30;;;;;;5060618;28;19978;-59
2024/02/23 07:10:44;;;;;;;;;;;23.50;36.40;;;;;;5069883;28;19981;-58
2024/02/23 07:13:11;;;;;;;;;;;23.50;36.40;;;;;;5063473;28;19928;-58
2024/02/23 07:15:38;;;;;;;;;;;23.60;36.50;;;;;;5065719;28;20032;-59
2024/02/23 07:18:05;;;;;;;;;;;23.60;36.50;;;;;;5062815;28;19928;-59
2024/02/23 07:20:32;;;;;;;;;;;23.60;36.40;;;;;;5065923;28;20366;-57
2024/02/23 07:22:59;;;;;;;;;;;23.60;36.30;;;;;;5062284;28;19928;-57
2024/02/23 07:25:26;;;;;;;;;;;23.70;36.40;;;;;;5060102;28;19938;-57
2024/02/23 07:27:53;;;;;;;;;;;23.70;36.50;;;;;;5068870;28;19963;-58
2024/02/23 07:30:20;;;;;;;;;;;23.70;36.40;;;;;;5066029;28;19928;-60
2024/02/23 07:32:47;;;;;;;;;;;23.80;36.30;;;;;;5061809;28;19933;-59
2024/02/23 07:35:19;;;;;;;;;;;23.80;36.00;;;;;;5066166;28;19931;-59
2024/02/23 07:37:46;;;;;;;;;;;23.80;35.70;;;;;;5067597;28;19924;-60
2024/02/23 07:40:13;;;;;;;;;;;23.80;35.70;;;;;;5067515;28;19924;-57
2024/02/23 07:42:45;;;;;;;;;;;23.80;35.80;;;;;;5064290;28;20405;-58
2024/02/23 07:45:12;;;;;;;;;;;23.80;35.80;;;;;;5065026;28;19936;-59
2024/02/23 07:47:39;;;;;;;;;;;23.90;35.80;;;;;;5062870;28;19928;-59
2024/02/23 07:50:07;;;;;;;;;;;23.90;35.80;;;;;;5066683;28;20027;-59
2024/02/23 07:52:34;;;;;;;;;;;23.90;35.90;;;;;;5064492;28;19936;-59
2024/02/23 07:55:04;;;;;;;;;;;23.90;35.90;;;;;;5064082;28;20044;-59
2024/02/23 07:57:32;;;;;;;;;;;23.90;35.90;;;;;;5059587;28;20043;-60
2024/02/23 08:00:00;;;;;;;;;;;24.00;36.00;;;;;;5060973;28;19967;-64
2024/02/23 08:02:27;;;;;;;;;;;24.00;35.90;;;;;;5062424;28;19936;-59
2024/02/23 08:04:54;;;;;;;;;;;24.00;35.90;;;;;;5063641;28;19945;-63
2024/02/23 08:07:22;;;;;;;;;;;24.10;35.90;;;;;;5059831;28;20002;-61
2024/02/23 08:09:49;;;;;;;;;;;24.00;36.00;;;;;;5066130;28;19971;-63
2024/02/23 08:12:16;;;;;;;;;;;24.10;35.90;;;;;;5067022;28;19928;-59
2024/02/23 08:14:45;;;;;;;;;;;24.10;35.90;;;;;;5055095;28;19950;-59
2024/02/23 08:17:12;;;;;;;;;;;24.10;35.80;;;;;;5062329;28;19939;-60
2024/02/23 08:19:39;;;;;;;;;;;24.10;35.80;;;;;;5060917;28;19939;-59
2024/02/23 08:22:06;;;;;;;;;;;24.10;35.80;;;;;;5060259;28;19943;-60
2024/02/23 08:24:33;;;;;;;;;;;24.10;35.70;;;;;;5061924;28;19985;-61
2024/02/23 08:27:02;;;;;;;;;;;24.10;35.70;;;;;;5060575;28;19941;-61
2024/02/23 08:29:29;;;;;;;;;;;24.10;35.70;;;;;;5062568;28;19940;-61
2024/02/23 08:31:57;;;;;;;;;;;24.10;35.80;;;;;;5067852;28;19932;-60
2024/02/23 08:34:24;;;;;;;;;;;24.10;36.00;;;;;;5062501;28;19950;-60
2024/02/23 08:36:51;;;;;;;;;;;24.10;36.10;;;;;;5063976;28;20381;-59
2024/02/23 08:39:20;;;;;;;;;;;24.20;36.10;;;;;;5068685;28;20284;-60
2024/02/23 08:41:47;;;;;;;;;;;24.20;36.00;;;;;;5065931;28;20031;-60
2024/02/23 08:44:14;;;;;;;;;;;24.20;35.90;;;;;;5064423;28;19990;-60
2024/02/23 08:46:41;;;;;;;;;;;24.20;35.80;;;;;;5064642;28;20291;-59
2024/02/23 08:49:11;;;;;;;;;;;24.20;35.80;;;;;;5071732;28;19931;-60
2024/02/23 08:51:38;;;;;;;;;;;24.30;35.90;;;;;;5066288;28;19932;-60
2024/02/23 08:54:06;;;;;;;;;;;24.30;35.80;;;;;;5062683;28;20388;-60
2024/02/23 08:56:37;;;;;;;;;;;24.30;35.80;;;;;;5059607;28;20346;-60
2024/02/23 08:59:04;;;;;;;;;;;24.50;35.70;;;;;;5067515;28;20036;-60
2024/02/23 09:01:31;;;;;;;;;;;24.50;35.70;;;;;;5062283;28;19924;-60
2024/02/23 09:03:59;;;;;;;;;;;24.50;35.50;;;;;;5058417;28;20342;-58
2024/02/23 09:06:26;;;;;;;;;;;24.60;35.50;;;;;;5060715;28;19925;-59
2024/02/23 09:08:53;;;;;;;;;;;24.60;35.40;;;;;;5063691;28;20382;-59
2024/02/23 09:11:20;;;;;;;;;;;24.60;35.30;;;;;;5067442;28;19932;-59
2024/02/23 09:13:47;;;;;;;;;;;24.60;35.30;;;;;;5068052;28;19946;-59
2024/02/23 09:16:14;;;;;;;;;;;24.60;35.30;;;;;;5067096;28;19929;-60
2024/02/23 09:18:41;;;;;;;;;;;24.70;35.50;;;;;;5063323;28;19944;-59
2024/02/23 09:21:08;;;;;;;;;;;24.60;35.60;;;;;;5061235;28;19998;-59
2024/02/23 09:23:35;;;;;;;;;;;24.60;35.70;;;;;;5068508;28;20003;-58
2024/02/23 09:26:08;;;;;;;;;;;24.60;36.20;;;;;;5063252;28;20297;-59
2024/02/23 09:28:35;;;;;;;;;;;24.60;35.70;;;;;;5063839;28;19951;-60
2024/02/23 09:31:03;;;;;;;;;;;24.60;35.80;;;;;;5064456;28;19931;-59
2024/02/23 09:33:30;;;;;;;;;;;24.60;35.80;;;;;;5061637;28;19929;-59
2024/02/23 09:35:58;;;;;;;;;;;24.60;35.80;;;;;;5062012;28;20318;-59
2024/02/23 09:38:25;;;;;;;;;;;24.50;35.80;;;;;;5062489;28;19932;-59
2024/02/23 09:40:52;;;;;;;;;;;24.50;35.80;;;;;;5065208;28;19951;-59
2024/02/23 09:43:21;;;;;;;;;;;24.50;35.80;;;;;;5062722;28;19979;-58
2024/02/23 09:45:50;;;;;;;;;;;24.50;35.80;;;;;;5063359;28;20279;-58
2024/02/23 09:48:18;;;;;;;;;;;24.50;35.90;;;;;;5067124;28;19940;-59
2024/02/23 09:50:47;;;;;;;;;;;24.50;35.90;;;;;;5062867;28;20371;-57
2024/02/23 09:53:14;;;;;;;;;;;24.50;35.80;;;;;;5062777;28;19974;-58
2024/02/23 09:55:42;;;;;;;;;;;24.50;35.70;;;;;;5061551;28;19940;-57
2024/02/23 09:58:12;;;;;;;;;;;24.60;35.70;;;;;;5064949;28;20023;-58
2024/02/23 10:00:40;;;;;;;;;;;24.50;35.60;;;;;;5064606;28;19932;-59
2024/02/23 10:03:07;;;;;;;;;;;24.60;35.70;;;;;;5063327;28;19951;-57
2024/02/23 10:05:34;;;;;;;;;;;24.60;35.70;;;;;;5066769;28;19978;-58
2024/02/23 10:08:05;;;;;;;;;;;24.60;35.70;;;;;;5067916;28;19924;-59
2024/02/23 10:10:33;;;;;;;;;;;24.70;35.70;;;;;;5066285;28;19929;-59
2024/02/23 10:13:01;;;;;;;;;;;24.60;35.60;;;;;;5065634;28;19928;-59
2024/02/23 10:15:31;;;;;;;;;;;24.70;35.60;;;;;;5096013;28;20022;-59
2024/02/23 10:17:59;;;;;;;;;;;24.70;35.60;;;;;;5067119;28;20397;-60
2024/02/23 10:20:26;;;;;;;;;;;24.70;35.50;;;;;;5067461;28;19925;-59
2024/02/23 10:22:54;;;;;;;;;;;24.70;35.50;;;;;;5064763;28;19932;-57
2024/02/23 10:25:21;;;;;;;;;;;24.70;35.50;;;;;;5066787;28;19929;-59
2024/02/23 10:27:48;;;;;;;;;;;24.70;35.50;;;;;;5065499;28;20445;-57
2024/02/23 10:30:15;;;;;;;;;;;24.70;35.50;;;;;;5070661;28;20010;-57
2024/02/23 10:32:42;;;;;;;;;;;24.70;35.60;;;;;;5063986;28;19932;-55
2024/02/23 10:35:16;;;;;;;;;;;24.70;35.70;;;;;;5069003;28;19983;-58
2024/02/23 10:37:45;;;;;;;;;;;24.60;35.70;;;;;;5067135;28;19928;-58
2024/02/23 10:40:13;;;;;;;;;;;24.70;35.70;;;;;;5066429;28;19965;-59
2024/02/23 10:42:41;;;;;;;;;;;24.70;35.70;;;;;;5068254;28;21520;-58
2024/02/23 10:45:09;;;;;;;;;;;24.70;35.70;;;;;;5064644;28;19931;-57
2024/02/23 10:47:37;;;;;;;;;;;24.70;35.60;;;;;;5068653;28;19969;-55
2024/02/23 10:50:06;;;;;;;;;;;24.70;35.50;;;;;;5073548;28;19946;-59
2024/02/23 10:52:33;;;;;;;;;;;24.80;35.40;;;;;;5068316;28;20456;-58
2024/02/23 10:55:04;;;;;;;;;;;24.90;35.30;;;;;;5072488;28;19990;-57
2024/02/23 10:57:34;;;;;;;;;;;24.90;35.20;;;;;;5065176;28;19992;-54
2024/02/23 11:00:05;;;;;;;;;;;25.00;35.20;;;;;;5071070;28;19928;-56
2024/02/23 11:02:35;;;;;;;;;;;25.00;35.10;;;;;;5064506;28;19939;-55
2024/02/23 11:05:04;;;;;;;;;;;25.00;35.10;;;;;;5062009;28;19925;-60
2024/02/23 11:07:32;;;;;;;;;;;25.00;35.00;;;;;;5068978;28;19928;-52
2024/02/23 11:09:59;;;;;;;;;;;25.10;35.20;;;;;;5068058;28;19932;-55
2024/02/23 11:12:28;;;;;;;;;;;25.10;35.20;;;;;;5065235;28;20382;-56
2024/02/23 11:15:00;;;;;;;;;;;25.20;35.00;;;;;;5063373;28;20382;-54
2024/02/23 11:17:30;;;;;;;;;;;25.20;34.90;;;;;;5066969;28;19924;-57
2024/02/23 11:19:57;;;;;;;;;;;25.20;34.90;;;;;;5066748;28;19929;-58
2024/02/23 11:22:32;;;;;;;;;;;25.20;34.70;;;;;;5066073;28;19925;-59
2024/02/23 11:25:06;;;;;;;;;;;25.30;34.60;;;;;;5072762;28;19928;-58
2024/02/23 11:27:33;;;;;;;;;;;25.30;34.50;;;;;;5066069;28;19928;-58
2024/02/23 11:30:04;;;;;;;;;;;25.30;34.50;;;;;;5067291;28;20135;-56
2024/02/23 11:32:40;;;;;;;;;;;25.30;34.40;;;;;;5065622;28;20053;-59
2024/02/23 11:35:08;;;;;;;;;;;25.30;35.00;;;;;;5069980;28;19932;-57
2024/02/23 11:37:56;;;;;;;;;;;25.30;34.30;;;;;;5066277;28;19933;-54
2024/02/23 11:40:24;;;;;;;;;;;25.30;34.30;;;;;;5068660;28;19936;-55
2024/02/23 11:42:51;;;;;;;;;;;25.30;34.30;;;;;;5066647;28;19939;-53
2024/02/23 11:45:18;;;;;;;;;;;25.30;34.30;;;;;;5069132;28;19936;-55
2024/02/23 11:47:45;;;;;;;;;;;25.30;34.30;;;;;;5067735;28;20370;-56
2024/02/23 11:50:14;;;;;;;;;;;25.30;34.30;;;;;;5068439;28;20023;-57
2024/02/23 11:52:41;;;;;;;;;;;25.30;34.30;;;;;;5067907;28;19931;-56
2024/02/23 11:55:08;;;;;;;;;;;25.30;34.30;;;;;;5065912;28;19928;-56
2024/02/23 11:57:35;;;;;;;;;;;25.30;34.40;;;;;;5066818;28;19931;-56
2024/02/23 12:00:14;;;;;;;;;;;25.20;34.40;;;;;;5066793;28;19924;-57
2024/02/23 12:02:41;;;;;;;;;;;25.20;34.40;;;;;;5065787;28;19928;-58
2024/02/23 12:05:08;;;;;;;;;;;25.20;34.40;;;;;;5069170;28;20165;-56
2024/02/23 12:07:35;;;;;;;;;;;25.30;34.50;;;;;;5065089;28;20011;-57
2024/02/23 12:10:05;;;;;;;;;;;25.30;34.50;;;;;;5067621;28;19924;-57
2024/02/23 12:12:32;;;;;;;;;;;25.30;34.40;;;;;;5062538;28;19931;-56
2024/02/23 12:14:59;;;;;;;;;;;25.30;34.30;;;;;;5067550;28;20446;-58
2024/02/23 12:17:29;;;;;;;;;;;25.40;34.40;;;;;;5060602;28;19929;-54
2024/02/23 12:20:01;;;;;;;;;;;25.40;34.30;;;;;;5063513;28;19932;-57
2024/02/23 12:22:29;;;;;;;;;;;25.40;34.30;;;;;;5066865;28;19929;-58
2024/02/23 12:24:59;;;;;;;;;;;25.40;34.30;;;;;;5068303;28;19932;-58
2024/02/23 12:27:29;;;;;;;;;;;25.50;34.40;;;;;;5067868;28;20247;-57
2024/02/23 12:29:57;;;;;;;;;;;25.50;34.30;;;;;;5060327;28;20049;-57
2024/02/23 12:32:25;;;;;;;;;;;25.50;34.40;;;;;;5059865;28;20282;-54
2024/02/23 12:34:52;;;;;;;;;;;25.50;34.60;;;;;;5060976;28;20429;-55
2024/02/23 12:37:21;;;;;;;;;;;25.50;34.60;;;;;;5063450;28;19925;-57
2024/02/23 12:39:48;;;;;;;;;;;25.40;34.70;;;;;;5054092;28;19932;-58
2024/02/23 12:42:16;;;;;;;;;;;25.40;34.70;;;;;;5055697;28;19933;-57
2024/02/23 12:44:43;;;;;;;;;;;25.40;34.70;;;;;;5059141;28;19971;-57
2024/02/23 12:47:10;;;;;;;;;;;25.40;34.80;;;;;;5056861;28;20449;-57
2024/02/23 12:49:37;;;;;;;;;;;25.40;34.80;;;;;;5055063;28;21307;-57
2024/02/23 12:52:07;;;;;;;;;;;25.40;34.90;;;;;;5060261;28;20467;-58
2024/02/23 12:54:34;;;;;;;;;;;25.40;35.00;;;;;;5056816;28;19932;-57
2024/02/23 12:57:01;;;;;;;;;;;25.40;35.10;;;;;;5062260;28;19935;-60
2024/02/23 12:59:28;;;;;;;;;;;25.40;35.10;;;;;;5063292;28;20036;-58
2024/02/23 13:01:55;;;;;;;;;;;25.30;35.70;;;;;;5063650;28;19928;-54
2024/02/23 13:04:22;;;;;;;;;;;25.30;35.10;;;;;;5063877;28;19938;-56
2024/02/23 13:06:49;;;;;;;;;;;25.30;35.10;;;;;;5064092;28;20299;-53
2024/02/23 13:09:16;;;;;;;;;;;25.40;35.00;;;;;;5069801;28;19932;-57
2024/02/23 13:11:43;;;;;;;;;;;25.40;35.10;;;;;;5066077;28;20444;-54
2024/02/23 13:14:10;;;;;;;;;;;25.40;34.90;;;;;;5067709;28;20275;-55
2024/02/23 13:16:37;;;;;;;;;;;25.40;34.90;;;;;;5069250;28;19932;-52
2024/02/23 13:19:04;;;;;;;;;;;25.40;34.90;;;;;;5066888;28;20344;-56
2024/02/23 13:21:32;;;;;;;;;;;25.40;34.90;;;;;;5068002;28;19925;-53
2024/02/23 13:23:59;;;;;;;;;;;25.40;34.90;;;;;;5067093;28;19936;-54
2024/02/23 13:26:26;;;;;;;;;;;25.30;35.00;;;;;;5066369;28;20024;-55
2024/02/23 13:28:53;;;;;;;;;;;25.30;34.90;;;;;;5072642;28;19978;-55
2024/02/23 13:31:20;;;;;;;;;;;25.30;34.90;;;;;;5072560;28;20007;-55
2024/02/23 13:33:48;;;;;;;;;;;25.30;35.00;;;;;;5069939;28;20413;-55
2024/02/23 13:36:15;;;;;;;;;;;25.30;35.00;;;;;;5068574;28;20275;-56
2024/02/23 13:38:42;;;;;;;;;;;25.30;35.00;;;;;;5071335;28;20204;-57
2024/02/23 13:41:09;;;;;;;;;;;25.30;34.80;;;;;;5069724;28;19990;-57
2024/02/23 13:43:38;;;;;;;;;;;25.30;34.90;;;;;;5072192;28;19928;-55
2024/02/23 13:46:05;;;;;;;;;;;25.30;34.90;;;;;;5073863;28;20382;-52
2024/02/23 13:48:32;;;;;;;;;;;25.30;34.90;;;;;;5072516;28;20305;-55
2024/02/23 13:51:03;;;;;;;;;;;25.30;35.00;;;;;;5073152;28;19935;-55
2024/02/23 13:53:31;;;;;;;;;;;25.20;34.90;;;;;;5073680;28;19924;-54
2024/02/23 13:55:58;;;;;;;;;;;25.20;34.90;;;;;;5073464;28;19928;-55
2024/02/23 13:58:25;;;;;;;;;;;25.20;34.90;;;;;;5077391;28;19924;-53
2024/02/23 14:00:52;;;;;;;;;;;25.20;35.00;;;;;;5071875;28;20002;-55
2024/02/23 14:03:19;;;;;;;;;;;25.10;34.90;;;;;;5073723;28;19932;-55
2024/02/23 14:05:47;;;;;;;;;;;25.10;35.00;;;;;;5073963;28;19975;-53
2024/02/23 14:08:14;;;;;;;;;;;25.10;35.30;;;;;;5073872;28;20285;-54
2024/02/23 14:10:43;;;;;;;;;;;25.10;35.30;;;;;;5072678;28;20293;-61
2024/02/23 14:13:10;;;;;;;;;;;25.00;36.80;;;;;;5080152;28;19931;-62
2024/02/23 14:15:37;;;;;;;;;;;24.90;36.00;;;;;;5092319;28;20357;-64
2024/02/23 14:18:04;;;;;;;;;;;24.90;39.40;;;;;;5094064;28;19931;-63